createdAt,value
2022-12-01T00:04:05.080Z,100.00
2022-12-01T00:06:35.972Z,100.00
2022-12-01T00:11:37.207Z,100.00
2022-12-01T00:24:06.921Z,100.00
2022-12-01T00:26:36.863Z,100.00
2022-12-01T00:29:05.203Z,100.00
2022-12-01T00:34:09.683Z,100.00
2022-12-01T00:36:35.376Z,100.00
2022-12-01T00:44:05.088Z,100.00
2022-12-01T00:54:05.379Z,100.00
2022-12-01T00:56:35.075Z,100.00
2022-12-01T00:59:05.182Z,100.00
2022-12-01T01:01:35.357Z,100.00
2022-12-01T01:04:05.698Z,100.00
2022-12-01T01:06:35.171Z,100.00
2022-12-01T01:09:05.067Z,100.00
2022-12-01T01:11:35.304Z,100.00
2022-12-01T01:16:35.471Z,100.00
2022-12-01T01:19:05.291Z,100.00
2022-12-01T01:21:35.391Z,100.00
2022-12-01T01:24:05.548Z,100.00
2022-12-01T01:26:36.320Z,100.00
2022-12-01T01:29:06.740Z,100.00
2022-12-01T01:31:35.692Z,100.00
2022-12-01T01:36:35.178Z,100.00
2022-12-01T01:41:35.246Z,100.00
2022-12-01T01:44:24.999Z,100.00
2022-12-01T01:46:35.787Z,100.00
2022-12-01T01:49:07.736Z,100.00
2022-12-01T01:51:44.242Z,100.00
2022-12-01T01:54:07.673Z,100.00
2022-12-01T01:56:36.192Z,100.00
2022-12-01T01:59:05.288Z,100.00
2022-12-01T02:01:35.368Z,100.00
2022-12-01T02:04:06.467Z,100.00
2022-12-01T02:06:35.219Z,100.00
2022-12-01T02:11:50.389Z,100.00
2022-12-01T02:24:24.272Z,100.00
2022-12-01T02:31:40.870Z,100.00
2022-12-01T02:34:12.761Z,100.00
2022-12-01T02:36:42.659Z,100.00
2022-12-01T02:49:11.303Z,100.00
2022-12-01T02:51:38.889Z,100.00
2022-12-01T02:59:08.978Z,100.00
2022-12-01T03:04:24.621Z,100.00
2022-12-01T03:11:43.130Z,100.00
2022-12-01T03:16:45.700Z,100.00
2022-12-01T03:19:10.309Z,100.00
2022-12-01T03:21:39.730Z,100.00
2022-12-01T03:24:09.433Z,100.00
2022-12-01T03:26:37.070Z,100.00
2022-12-01T03:29:09.478Z,100.00
2022-12-01T03:36:39.603Z,100.00
2022-12-01T03:39:10.185Z,100.00
2022-12-01T03:41:41.702Z,100.00
2022-12-01T03:49:07.886Z,100.00
2022-12-01T03:54:13.718Z,100.00
2022-12-01T04:14:05.481Z,100.00
2022-12-01T04:26:37.858Z,100.00
2022-12-01T04:29:07.220Z,100.00
2022-12-01T04:39:06.916Z,100.00
2022-12-01T04:41:35.112Z,100.00
2022-12-01T04:44:05.162Z,100.00
2022-12-01T04:49:05.501Z,100.00
2022-12-01T04:59:06.233Z,100.00
2022-12-01T05:06:35.243Z,100.00
2022-12-01T05:09:06.009Z,100.00
2022-12-01T05:11:36.364Z,100.00
2022-12-01T05:14:05.988Z,100.00
2022-12-01T05:16:35.155Z,100.00
2022-12-01T05:19:15.583Z,100.00
2022-12-01T05:29:05.866Z,100.00
2022-12-01T05:34:05.635Z,100.00
2022-12-01T05:39:05.640Z,100.00
2022-12-01T05:44:05.355Z,100.00
2022-12-01T05:46:35.492Z,100.00
2022-12-01T05:51:35.389Z,100.00
2022-12-01T05:54:05.254Z,100.00
2022-12-01T05:56:35.589Z,100.00
2022-12-01T06:01:35.311Z,100.00
2022-12-01T06:09:05.475Z,100.00
2022-12-01T06:14:05.188Z,100.00
2022-12-01T06:16:35.307Z,100.00
2022-12-01T06:31:35.508Z,100.00
2022-12-01T06:39:05.761Z,100.00
2022-12-01T06:41:35.359Z,100.00
2022-12-01T06:46:35.866Z,100.00
2022-12-01T06:49:05.194Z,100.00
2022-12-01T06:51:35.181Z,100.00
2022-12-01T06:54:05.762Z,100.00
2022-12-01T06:56:35.169Z,100.00
2022-12-01T06:59:05.572Z,100.00
2022-12-01T07:01:35.434Z,100.00
2022-12-01T07:04:05.207Z,100.00
2022-12-01T07:06:35.271Z,100.00
2022-12-01T07:09:05.204Z,100.00
2022-12-01T07:11:35.988Z,100.00
2022-12-01T07:14:05.471Z,100.00
2022-12-01T07:16:35.231Z,100.00
2022-12-01T07:19:05.215Z,100.00
2022-12-01T07:21:35.200Z,100.00
2022-12-01T07:24:06.127Z,100.00
2022-12-01T07:26:35.229Z,100.00
2022-12-01T07:29:05.287Z,100.00
2022-12-01T07:31:36.311Z,100.00
2022-12-01T07:34:05.627Z,100.00
2022-12-01T07:36:35.359Z,100.00
2022-12-01T07:39:06.783Z,100.00
2022-12-01T07:41:35.603Z,100.00
2022-12-01T07:44:05.572Z,100.00
2022-12-01T07:46:35.423Z,100.00
2022-12-01T07:49:06.964Z,100.00
2022-12-01T07:51:35.351Z,100.00
2022-12-01T07:54:06.771Z,100.00
2022-12-01T07:56:35.216Z,100.00
2022-12-01T07:59:05.446Z,100.00
2022-12-01T08:01:35.949Z,100.00
2022-12-01T08:04:06.044Z,100.00
2022-12-01T08:06:35.307Z,100.00
2022-12-01T08:09:05.486Z,100.00
2022-12-01T08:11:35.272Z,100.00
2022-12-01T08:14:05.538Z,100.00
2022-12-01T08:16:35.311Z,100.00
2022-12-01T08:19:05.214Z,100.00
2022-12-01T08:21:36.573Z,100.00
2022-12-01T08:24:06.432Z,100.00
2022-12-01T08:31:37.168Z,100.00
2022-12-01T08:36:35.711Z,100.00
2022-12-01T08:39:07.188Z,100.00
2022-12-01T08:41:35.217Z,100.00
2022-12-01T08:44:05.391Z,100.00
2022-12-01T08:46:36.037Z,100.00
2022-12-01T08:51:35.562Z,100.00
2022-12-01T08:56:38.335Z,100.00
2022-12-01T09:01:45.970Z,100.00
2022-12-01T09:04:06.853Z,100.00
2022-12-01T09:09:05.899Z,100.00
2022-12-01T09:11:35.840Z,100.00
2022-12-01T09:14:05.671Z,100.00
2022-12-01T09:16:35.720Z,100.00
2022-12-01T09:19:05.714Z,100.00
2022-12-01T09:21:36.541Z,100.00
2022-12-01T09:24:06.842Z,100.00
2022-12-01T09:26:35.344Z,100.00
2022-12-01T09:29:07.744Z,100.00
2022-12-01T09:31:36.931Z,100.00
2022-12-01T09:39:06.701Z,100.00
2022-12-01T09:41:39.108Z,100.00
2022-12-01T09:44:14.375Z,100.00
2022-12-01T09:46:47.351Z,100.00
2022-12-01T10:04:11.157Z,100.00
2022-12-01T10:06:38.744Z,100.00
2022-12-01T10:11:39.595Z,100.00
2022-12-01T10:14:15.046Z,100.00
2022-12-01T10:16:42.395Z,100.00
2022-12-01T10:19:12.487Z,100.00
2022-12-01T10:21:50.678Z,100.00
2022-12-01T10:24:23.502Z,100.00
2022-12-01T10:26:48.890Z,100.00
2022-12-01T10:29:11.513Z,100.00
2022-12-01T10:31:46.972Z,100.00
2022-12-01T10:34:10.184Z,100.00
2022-12-01T10:36:35.575Z,100.00
2022-12-01T10:39:06.349Z,100.00
2022-12-01T10:41:38.284Z,100.00
2022-12-01T10:44:06.537Z,100.00
2022-12-01T10:46:42.791Z,100.00
2022-12-01T10:49:08.247Z,100.00
2022-12-01T10:51:46.387Z,100.00
2022-12-01T10:54:07.298Z,100.00
2022-12-01T10:56:39.810Z,100.00
2022-12-01T10:59:22.233Z,100.00
2022-12-01T11:01:35.523Z,100.00
2022-12-01T11:04:17.097Z,100.00
2022-12-01T11:06:36.948Z,100.00
2022-12-01T11:09:15.593Z,100.00
2022-12-01T11:11:37.948Z,100.00
2022-12-01T11:14:14.889Z,100.00
2022-12-01T11:16:44.600Z,100.00
2022-12-01T11:19:09.355Z,100.00
2022-12-01T11:21:45.825Z,100.00
2022-12-01T11:24:24.243Z,100.00
2022-12-01T11:26:35.430Z,100.00
2022-12-01T11:29:16.840Z,100.00
2022-12-01T11:31:38.733Z,100.00
2022-12-01T11:34:14.114Z,100.00
2022-12-01T11:36:41.628Z,100.00
2022-12-01T11:39:05.500Z,100.00
2022-12-01T11:41:38.408Z,100.00
2022-12-01T11:46:46.484Z,100.00
2022-12-01T11:54:13.904Z,100.00
2022-12-01T11:56:35.591Z,100.00
2022-12-01T11:59:09.928Z,100.00
2022-12-01T12:01:49.044Z,100.00
2022-12-01T12:04:22.005Z,100.00
2022-12-01T12:06:44.946Z,100.00
2022-12-01T12:09:23.563Z,100.00
2022-12-01T12:11:44.063Z,100.00
2022-12-01T12:14:22.690Z,100.00
2022-12-01T12:16:49.057Z,100.00
2022-12-01T12:21:45.788Z,100.00
2022-12-01T12:24:22.711Z,100.00
2022-12-01T12:26:41.146Z,100.00
2022-12-01T12:29:18.509Z,100.00
2022-12-01T12:31:44.737Z,100.00
2022-12-01T12:34:21.713Z,100.00
2022-12-01T12:36:45.403Z,100.00
2022-12-01T12:39:21.279Z,100.00
2022-12-01T12:45:03.540Z,100.00
2022-12-01T12:49:22.486Z,100.00
2022-12-01T12:51:40.490Z,100.00
2022-12-01T12:54:17.889Z,100.00
2022-12-01T12:56:36.484Z,100.00
2022-12-01T12:59:12.745Z,100.00
2022-12-01T13:01:39.313Z,100.00
2022-12-01T13:04:11.311Z,100.00
2022-12-01T13:06:39.307Z,100.00
2022-12-01T13:09:12.553Z,100.00
2022-12-01T13:11:43.561Z,100.00
2022-12-01T13:14:12.381Z,100.00
2022-12-01T13:16:40.696Z,100.00
2022-12-01T13:19:13.280Z,100.00
2022-12-01T14:29:30.203Z,95.27
2022-12-01T14:32:01.318Z,95.10
2022-12-01T14:34:18.633Z,95.09
2022-12-01T14:36:45.879Z,95.05
2022-12-01T14:39:15.286Z,95.24
2022-12-01T14:41:46.076Z,95.15
2022-12-01T14:44:20.351Z,95.16
2022-12-01T14:46:48.077Z,95.16
2022-12-01T14:49:16.985Z,95.27
2022-12-01T14:51:45.142Z,95.30
2022-12-01T14:54:19.729Z,95.30
2022-12-01T14:56:42.905Z,95.18
2022-12-01T14:59:15.043Z,95.22
2022-12-01T15:01:42.667Z,95.12
2022-12-01T15:04:11.564Z,95.02
2022-12-01T15:06:41.878Z,95.10
2022-12-01T15:09:33.559Z,95.14
2022-12-01T15:11:51.654Z,95.09
2022-12-01T15:14:22.720Z,95.18
2022-12-01T15:16:42.431Z,95.19
2022-12-01T15:19:23.440Z,95.27
2022-12-01T15:21:41.567Z,95.24
2022-12-01T15:24:21.306Z,95.17
2022-12-01T15:26:48.343Z,95.13
2022-12-01T15:29:15.125Z,95.21
2022-12-01T15:31:44.074Z,95.20
2022-12-01T15:34:15.837Z,95.18
2022-12-01T15:36:42.264Z,95.20
2022-12-01T15:39:15.304Z,95.32
2022-12-01T15:41:45.675Z,95.28
2022-12-01T15:44:21.978Z,95.30
2022-12-01T15:46:42.876Z,95.33
2022-12-01T15:49:18.751Z,95.38
2022-12-01T15:51:41.567Z,95.40
2022-12-01T15:54:18.491Z,95.76
2022-12-01T15:56:41.659Z,95.80
2022-12-01T15:59:24.563Z,95.83
2022-12-01T16:01:43.455Z,96.01
2022-12-01T16:04:18.225Z,95.85
2022-12-01T16:06:42.009Z,95.89
2022-12-01T16:09:21.154Z,95.83
2022-12-01T16:12:01.357Z,95.64
2022-12-01T16:14:21.888Z,95.87
2022-12-01T16:16:44.440Z,95.93
2022-12-01T16:19:23.422Z,96.02
2022-12-01T16:21:45.532Z,96.04
2022-12-01T16:24:14.690Z,96.19
2022-12-01T16:26:46.872Z,95.97
2022-12-01T16:29:18.531Z,96.11
2022-12-01T16:31:58.763Z,96.01
2022-12-01T16:34:43.990Z,96.00
2022-12-01T16:36:41.601Z,96.08
2022-12-01T16:39:12.242Z,95.95
2022-12-01T16:41:43.739Z,95.92
2022-12-01T16:44:28.172Z,95.91
2022-12-01T16:46:42.210Z,95.92
2022-12-01T16:49:11.715Z,95.97
2022-12-01T16:51:55.474Z,95.98
2022-12-01T16:54:11.570Z,96.31
2022-12-01T16:56:41.632Z,96.24
2022-12-01T16:59:11.574Z,96.19
2022-12-01T17:01:41.831Z,96.13
2022-12-01T17:04:11.922Z,96.33
2022-12-01T17:06:41.599Z,96.27
2022-12-01T17:09:11.947Z,96.20
2022-12-01T17:11:41.618Z,96.18
2022-12-01T17:14:12.088Z,96.27
2022-12-01T17:19:11.642Z,96.29
2022-12-01T17:21:41.592Z,96.28
2022-12-01T17:24:11.590Z,96.60
2022-12-01T17:26:41.974Z,96.68
2022-12-01T17:31:42.657Z,96.63
2022-12-01T17:34:11.545Z,96.61
2022-12-01T17:36:41.607Z,96.69
2022-12-01T17:39:11.880Z,96.89
2022-12-01T17:44:11.588Z,97.04
2022-12-01T17:49:12.465Z,97.05
2022-12-01T17:51:41.695Z,97.27
2022-12-01T17:54:11.553Z,97.36
2022-12-01T17:56:42.024Z,97.20
2022-12-01T17:59:11.754Z,97.36
2022-12-01T18:04:11.909Z,97.15
2022-12-01T18:06:41.945Z,97.19
2022-12-01T18:09:11.626Z,97.15
2022-12-01T18:14:11.646Z,97.10
2022-12-01T18:19:11.870Z,97.33
2022-12-01T18:21:41.731Z,97.16
2022-12-01T18:24:11.609Z,97.17
2022-12-01T18:26:42.025Z,97.30
2022-12-01T18:29:15.166Z,97.34
2022-12-01T18:31:42.497Z,97.37
2022-12-01T18:34:11.645Z,97.69
2022-12-01T18:36:41.675Z,97.75
2022-12-01T18:39:12.186Z,97.45
2022-12-01T18:46:41.963Z,97.61
2022-12-01T18:49:12.320Z,97.37
2022-12-01T18:51:41.708Z,97.13
2022-12-01T18:54:13.713Z,97.46
2022-12-01T18:56:42.962Z,97.38
2022-12-01T18:59:12.546Z,97.55
2022-12-01T19:01:43.928Z,97.54
2022-12-01T19:04:13.536Z,97.50
2022-12-01T19:06:42.566Z,97.49
2022-12-01T19:09:14.789Z,97.63
2022-12-01T19:11:42.442Z,97.36
2022-12-01T19:14:14.733Z,97.41
2022-12-01T19:16:42.165Z,97.62
2022-12-01T19:21:47.150Z,97.57
2022-12-01T19:24:12.024Z,97.56
2022-12-01T19:26:42.010Z,97.33
2022-12-01T19:29:11.806Z,97.39
2022-12-01T19:31:41.701Z,98.02
2022-12-01T19:34:11.852Z,97.95
2022-12-01T19:36:41.768Z,97.58
2022-12-01T19:39:11.798Z,97.85
2022-12-01T19:41:41.600Z,98.04
2022-12-01T19:44:11.813Z,98.11
2022-12-01T19:46:41.971Z,97.96
2022-12-01T19:49:11.611Z,97.84
2022-12-01T19:51:41.898Z,97.63
2022-12-01T19:54:13.970Z,97.59
2022-12-01T19:56:42.197Z,97.68
2022-12-01T19:59:13.877Z,97.44
2022-12-01T20:01:41.852Z,97.75
2022-12-01T20:04:15.819Z,97.71
2022-12-01T20:06:41.756Z,97.62
2022-12-01T20:09:11.965Z,97.45
2022-12-01T20:16:42.011Z,97.23
2022-12-01T20:19:11.889Z,97.18
2022-12-01T20:21:42.536Z,97.03
2022-12-01T20:24:14.159Z,97.09
2022-12-01T20:26:45.066Z,97.26
2022-12-01T20:29:14.002Z,97.15
2022-12-01T20:31:43.277Z,97.03
2022-12-01T20:34:14.206Z,97.10
2022-12-01T20:36:41.979Z,97.33
2022-12-01T20:39:12.630Z,97.33
2022-12-01T20:41:42.860Z,97.10
2022-12-01T20:44:13.062Z,97.05
2022-12-01T20:46:44.248Z,97.06
2022-12-01T20:49:13.906Z,96.92
2022-12-01T20:51:41.813Z,96.86
2022-12-01T20:54:28.309Z,96.78
2022-12-01T20:56:41.660Z,96.74
2022-12-01T21:09:13.817Z,96.76
2022-12-01T21:11:54.679Z,96.70
2022-12-01T21:14:16.864Z,96.75
2022-12-01T21:19:16.981Z,96.84
2022-12-01T21:21:41.917Z,96.91
2022-12-01T21:26:46.548Z,96.90
2022-12-01T21:31:41.875Z,96.84
2022-12-01T21:36:41.748Z,96.87
2022-12-01T21:39:13.942Z,96.79
2022-12-01T21:44:14.418Z,96.83
2022-12-01T21:46:42.308Z,96.74
2022-12-01T21:49:16.732Z,96.86
2022-12-01T21:51:41.679Z,96.71
2022-12-01T21:54:15.410Z,96.55
2022-12-01T21:56:42.323Z,96.49
2022-12-01T21:59:17.967Z,96.48
2022-12-01T22:01:41.692Z,96.39
2022-12-01T22:04:16.059Z,96.38
2022-12-01T22:06:45.965Z,96.32
2022-12-01T22:11:46.228Z,96.29
2022-12-01T22:14:15.145Z,96.29
2022-12-01T22:16:44.302Z,96.30
2022-12-01T22:19:24.520Z,96.27
2022-12-01T22:21:44.180Z,96.28
2022-12-01T22:26:47.046Z,96.23
2022-12-01T22:39:25.058Z,96.14
2022-12-01T22:41:41.637Z,96.11
2022-12-01T22:44:12.167Z,96.11
2022-12-01T22:46:41.845Z,96.12
2022-12-01T22:49:19.748Z,96.11
2022-12-01T22:54:24.300Z,96.07
2022-12-01T22:59:14.933Z,96.18
2022-12-01T23:04:19.330Z,96.19
2022-12-01T23:06:52.164Z,96.22
2022-12-01T23:14:14.744Z,96.15
2022-12-01T23:16:41.716Z,96.22
2022-12-01T23:19:11.998Z,96.02
2022-12-01T23:21:41.753Z,96.21
2022-12-01T23:24:16.832Z,96.06
2022-12-01T23:26:44.249Z,95.99
2022-12-01T23:29:11.875Z,95.90
2022-12-01T23:31:42.619Z,95.92
2022-12-01T23:34:14.348Z,95.90
2022-12-01T23:41:44.233Z,95.78
2022-12-01T23:44:19.690Z,95.77
2022-12-01T23:49:14.945Z,95.77
2022-12-01T23:51:45.874Z,95.69
2022-12-01T23:54:17.316Z,95.72
2022-12-01T23:59:13.216Z,95.81
